Time;durP1;ratioP1;P1;durP2;ratioP2;P2;SDS_P1;SDS_P2;PMS_P1;PMS_P2;Temp;Humidity;BMP_temperature;BMP_pressure;BME280_temperature;BME280_humidity;BME280_pressure;Samples;Min_cycle;Max_cycle;Signal;HPM_P1;HPM_P2
2021/03/19 00:00:32;;;;;;;1.20;1.20;;;19.40;45.10;;;;;;5068383;28;20505;-70
2021/03/19 00:02:58;;;;;;;1.30;1.10;;;19.50;45.10;;;;;;5061608;28;20487;-70
2021/03/19 00:05:25;;;;;;;0.90;0.90;;;19.50;45.00;;;;;;5055221;28;20481;-70
2021/03/19 00:07:53;;;;;;;1.20;1.10;;;19.50;45.10;;;;;;5054558;28;21553;-71
2021/03/19 00:10:20;;;;;;;1.10;1.10;;;19.50;45.10;;;;;;5022901;28;20494;-70
2021/03/19 00:12:47;;;;;;;1.00;1.00;;;19.50;45.00;;;;;;5039905;28;21441;-70
2021/03/19 00:15:14;;;;;;;0.83;0.83;;;19.40;45.00;;;;;;5060185;28;20486;-71
2021/03/19 00:17:40;;;;;;;1.30;1.20;;;19.40;45.70;;;;;;5056426;28;20510;-70
2021/03/19 00:20:09;;;;;;;1.00;1.00;;;19.40;44.80;;;;;;5055001;28;20482;-70
2021/03/19 00:22:36;;;;;;;1.03;1.03;;;19.50;44.90;;;;;;5063589;28;20468;-70
2021/03/19 00:25:02;;;;;;;1.33;1.23;;;19.50;44.80;;;;;;5055151;28;20516;-70
2021/03/19 00:27:29;;;;;;;0.70;0.70;;;19.50;44.80;;;;;;5056148;28;20472;-71
2021/03/19 00:29:55;;;;;;;0.97;0.97;;;19.50;44.80;;;;;;5052357;28;20543;-71
2021/03/19 00:32:21;;;;;;;0.80;0.80;;;19.50;44.80;;;;;;5045523;28;20655;-70
2021/03/19 00:34:47;;;;;;;1.80;0.93;;;19.50;44.90;;;;;;5034002;28;20473;-70
2021/03/19 00:37:13;;;;;;;1.50;1.17;;;19.50;44.80;;;;;;5009479;28;20930;-71
2021/03/19 00:39:40;;;;;;;0.70;0.70;;;19.50;44.80;;;;;;5013041;28;20481;-72
2021/03/19 00:42:08;;;;;;;0.87;0.87;;;19.50;44.80;;;;;;5073202;28;20511;-72
2021/03/19 00:44:34;;;;;;;1.70;0.83;;;19.40;44.80;;;;;;5051988;28;20575;-70
2021/03/19 00:47:01;;;;;;;0.90;0.90;;;19.40;44.80;;;;;;5059204;28;20849;-70
2021/03/19 00:49:27;;;;;;;1.70;1.00;;;19.40;44.80;;;;;;5059433;28;21540;-71
2021/03/19 00:51:53;;;;;;;1.00;0.90;;;19.40;44.80;;;;;;5054206;28;21040;-70
2021/03/19 00:54:20;;;;;;;0.80;0.80;;;19.40;44.70;;;;;;5043818;28;20485;-70
2021/03/19 00:56:47;;;;;;;1.33;1.30;;;19.40;44.70;;;;;;5051179;28;20477;-71
2021/03/19 00:59:13;;;;;;;0.80;0.80;;;19.40;44.70;;;;;;5052998;28;20492;-70
2021/03/19 01:01:39;;;;;;;1.17;1.17;;;19.40;44.70;;;;;;5052470;28;20476;-71
2021/03/19 01:04:05;;;;;;;0.80;0.80;;;19.40;44.70;;;;;;5034220;28;21986;-70
2021/03/19 01:06:32;;;;;;;1.40;1.30;;;19.40;44.60;;;;;;5054844;28;21001;-70
2021/03/19 01:08:58;;;;;;;0.80;0.80;;;19.40;44.70;;;;;;5057731;28;20493;-71
2021/03/19 01:11:24;;;;;;;0.80;0.80;;;19.40;44.60;;;;;;5020163;28;20564;-70
2021/03/19 01:13:51;;;;;;;1.00;0.70;;;19.40;44.60;;;;;;5033590;28;21023;-70
2021/03/19 01:16:17;;;;;;;2.00;1.20;;;19.50;44.60;;;;;;5033278;28;20504;-70
2021/03/19 01:18:43;;;;;;;0.83;0.83;;;19.50;44.60;;;;;;5061028;28;21608;-70
2021/03/19 01:21:10;;;;;;;1.17;1.13;;;19.50;44.70;;;;;;5055600;28;20482;-71
2021/03/19 01:23:36;;;;;;;0.80;0.80;;;19.50;44.60;;;;;;5048937;28;20490;-70
2021/03/19 01:26:02;;;;;;;0.80;0.80;;;19.50;44.60;;;;;;5072874;28;21221;-70
2021/03/19 01:28:28;;;;;;;1.03;0.93;;;19.50;44.60;;;;;;5046374;28;20482;-70
2021/03/19 01:30:55;;;;;;;1.13;0.90;;;19.50;44.50;;;;;;5045009;28;21553;-70
2021/03/19 01:33:22;;;;;;;1.37;1.37;;;19.50;44.40;;;;;;5056855;28;20481;-71
2021/03/19 01:35:48;;;;;;;1.13;1.07;;;19.50;44.40;;;;;;5068562;28;20499;-70
2021/03/19 01:38:14;;;;;;;1.00;1.00;;;19.40;44.40;;;;;;5047907;28;20556;-70
2021/03/19 01:40:41;;;;;;;1.07;1.07;;;19.40;44.50;;;;;;5049439;28;20496;-71
2021/03/19 01:43:10;;;;;;;1.43;0.90;;;19.40;44.40;;;;;;5063771;28;20483;-70
2021/03/19 01:46:16;;;;;;;1.17;0.73;;;19.40;44.50;;;;;;5051683;28;20518;-72
2021/03/19 01:49:19;;;;;;;0.70;0.70;;;19.40;44.40;;;;;;5049244;28;20574;-70
2021/03/19 01:52:23;;;;;;;0.83;0.83;;;19.40;44.40;;;;;;5028710;28;20477;-71
2021/03/19 01:55:26;;;;;;;1.27;1.17;;;19.40;44.50;;;;;;5037458;28;20489;-70
2021/03/19 01:58:30;;;;;;;0.80;0.80;;;19.40;44.50;;;;;;5057106;28;20466;-70
2021/03/19 02:01:34;;;;;;;1.10;1.10;;;19.40;44.30;;;;;;5057961;28;20599;-71
2021/03/19 02:04:37;;;;;;;0.97;0.87;;;19.30;44.20;;;;;;5055886;28;20560;-70
2021/03/19 02:07:40;;;;;;;1.17;1.17;;;19.40;45.00;;;;;;5067943;28;21036;-70
2021/03/19 02:10:44;;;;;;;1.13;1.13;;;19.30;44.30;;;;;;5051902;28;21119;-71
2021/03/19 02:13:47;;;;;;;0.70;0.70;;;19.30;44.30;;;;;;5040624;28;20528;-71
2021/03/19 02:16:51;;;;;;;1.47;1.37;;;19.30;44.30;;;;;;5056125;28;20485;-70
2021/03/19 02:19:54;;;;;;;0.73;0.73;;;19.30;44.30;;;;;;5061946;28;20488;-70
2021/03/19 02:22:54;;;;;;;0.90;0.90;;;19.30;44.40;;;;;;5059594;28;20481;-71
2021/03/19 02:25:57;;;;;;;1.10;1.00;;;19.30;44.40;;;;;;5029863;28;20473;-70
2021/03/19 02:29:15;;;;;;;0.90;0.90;;;19.30;44.40;;;;;;5053586;28;20516;-70
2021/03/19 02:31:54;;;;;;;0.73;0.73;;;19.30;44.40;;;;;;4990849;28;21377;-69
2021/03/19 02:34:21;;;;;;;0.97;0.97;;;19.30;44.30;;;;;;4997386;28;20610;-70
2021/03/19 02:36:47;;;;;;;1.50;1.40;;;19.30;44.20;;;;;;5043537;28;20569;-71
2021/03/19 02:39:13;;;;;;;1.33;1.03;;;19.30;44.10;;;;;;5061308;28;20489;-71
2021/03/19 02:41:39;;;;;;;1.10;1.10;;;19.30;44.10;;;;;;5046025;28;20494;-69
2021/03/19 02:44:05;;;;;;;1.03;1.03;;;19.30;44.20;;;;;;5040867;28;20840;-69
2021/03/19 02:46:31;;;;;;;0.97;0.97;;;19.30;44.20;;;;;;5064689;28;20488;-69
2021/03/19 02:48:58;;;;;;;1.10;1.10;;;19.30;44.10;;;;;;5029518;28;20572;-70
2021/03/19 02:51:25;;;;;;;1.80;0.80;;;19.30;44.00;;;;;;5021282;28;20861;-70
2021/03/19 02:53:51;;;;;;;0.93;0.93;;;19.40;44.10;;;;;;5056885;28;20477;-70
2021/03/19 02:56:17;;;;;;;0.90;0.90;;;19.30;44.00;;;;;;5057225;28;20499;-69
2021/03/19 02:58:43;;;;;;;0.97;0.97;;;19.30;44.10;;;;;;5032786;28;20468;-71
2021/03/19 03:01:09;;;;;;;0.70;0.70;;;19.40;44.10;;;;;;5027236;28;20522;-70
2021/03/19 03:03:35;;;;;;;0.97;0.97;;;19.40;44.20;;;;;;5054186;27;20484;-70
2021/03/19 03:06:03;;;;;;;0.80;0.80;;;19.40;44.10;;;;;;5068725;28;20482;-70
2021/03/19 03:08:29;;;;;;;1.30;1.20;;;19.40;44.90;;;;;;5059069;28;20507;-71
2021/03/19 03:10:55;;;;;;;0.80;0.80;;;19.40;44.00;;;;;;5055746;28;20496;-70
2021/03/19 03:13:22;;;;;;;0.70;0.70;;;19.40;44.00;;;;;;5068038;28;20490;-69
2021/03/19 03:15:48;;;;;;;0.80;0.67;;;19.40;43.90;;;;;;5039618;28;20492;-70
2021/03/19 03:18:14;;;;;;;0.90;0.90;;;19.30;43.80;;;;;;5027448;28;20515;-70
2021/03/19 03:20:42;;;;;;;0.80;0.80;;;19.40;44.00;;;;;;5028567;28;20484;-70
2021/03/19 03:23:09;;;;;;;1.00;1.00;;;19.40;44.00;;;;;;5064909;28;20497;-71
2021/03/19 03:25:37;;;;;;;0.63;0.63;;;19.40;44.10;;;;;;5063783;28;20530;-71
2021/03/19 03:28:04;;;;;;;1.07;0.97;;;19.40;44.10;;;;;;5036159;28;20555;-70
2021/03/19 03:30:32;;;;;;;0.73;0.73;;;19.40;43.90;;;;;;5029820;28;20532;-71
2021/03/19 03:32:59;;;;;;;1.13;0.70;;;19.40;43.80;;;;;;5066879;28;20481;-71
2021/03/19 03:35:25;;;;;;;0.73;0.73;;;19.40;43.80;;;;;;5078993;28;20891;-70
2021/03/19 03:37:51;;;;;;;0.80;0.80;;;19.40;43.90;;;;;;5059047;28;20488;-70
2021/03/19 03:40:20;;;;;;;0.70;0.70;;;19.40;44.20;;;;;;5061623;28;20575;-70
2021/03/19 03:42:46;;;;;;;1.03;1.03;;;19.30;43.90;;;;;;5003513;28;20477;-71
2021/03/19 03:45:13;;;;;;;1.20;1.10;;;19.30;43.90;;;;;;5050639;28;20500;-70
2021/03/19 03:47:39;;;;;;;0.70;0.70;;;19.30;43.80;;;;;;5049054;28;20483;-70
2021/03/19 03:50:06;;;;;;;0.77;0.77;;;19.30;43.80;;;;;;5054814;28;20487;-70
2021/03/19 03:52:32;;;;;;;1.37;0.97;;;19.30;43.80;;;;;;5053773;28;20612;-70
2021/03/19 03:54:58;;;;;;;0.80;0.80;;;19.30;44.00;;;;;;5056280;28;20486;-70
2021/03/19 03:57:25;;;;;;;0.90;0.90;;;19.40;43.90;;;;;;5055874;28;21028;-70
2021/03/19 03:59:51;;;;;;;1.20;1.20;;;19.40;43.90;;;;;;5061464;28;20480;-71
2021/03/19 04:02:18;;;;;;;0.67;0.67;;;19.40;43.80;;;;;;5053542;28;20465;-70
2021/03/19 04:04:47;;;;;;;1.80;0.90;;;19.40;43.80;;;;;;5056870;28;20539;-70
2021/03/19 04:07:13;;;;;;;0.97;0.97;;;19.40;43.60;;;;;;5074310;28;21056;-70
2021/03/19 04:09:39;;;;;;;0.80;0.80;;;19.50;43.50;;;;;;5045469;28;20476;-71
2021/03/19 04:12:06;;;;;;;0.77;0.77;;;19.50;43.30;;;;;;5029232;28;20536;-70
2021/03/19 04:14:33;;;;;;;1.30;1.30;;;19.50;43.30;;;;;;5043411;28;20515;-71
2021/03/19 04:16:59;;;;;;;0.80;0.80;;;19.50;43.30;;;;;;5038192;28;20536;-70
2021/03/19 04:19:26;;;;;;;1.00;1.00;;;19.50;43.30;;;;;;5057481;28;20480;-71
2021/03/19 04:21:52;;;;;;;0.80;0.80;;;19.50;43.20;;;;;;5065648;28;21601;-71
2021/03/19 04:24:18;;;;;;;2.03;0.70;;;19.50;43.10;;;;;;5055009;28;20835;-70
2021/03/19 04:26:44;;;;;;;1.07;1.07;;;19.60;43.20;;;;;;5063868;28;21012;-70
2021/03/19 04:29:10;;;;;;;1.00;1.00;;;19.60;43.10;;;;;;5052532;28;20501;-70
2021/03/19 04:31:37;;;;;;;0.70;0.70;;;19.60;43.00;;;;;;5057097;28;20508;-69
2021/03/19 04:34:04;;;;;;;0.63;0.63;;;19.60;43.00;;;;;;5038336;28;20494;-70
2021/03/19 04:36:36;;;;;;;1.20;0.90;;;19.60;42.90;;;;;;5056143;28;20491;-70
2021/03/19 04:39:04;;;;;;;0.77;0.77;;;19.60;42.90;;;;;;5051686;28;20517;-70
2021/03/19 04:41:31;;;;;;;0.80;0.80;;;19.60;42.90;;;;;;5051213;28;20485;-71
2021/03/19 04:43:58;;;;;;;0.90;0.73;;;19.60;42.90;;;;;;5056380;28;20473;-70
2021/03/19 04:46:24;;;;;;;0.90;0.90;;;19.60;42.90;;;;;;5058752;28;20474;-70
2021/03/19 04:48:51;;;;;;;0.93;0.90;;;19.60;42.90;;;;;;5041042;28;20487;-70
2021/03/19 04:51:17;;;;;;;1.23;0.83;;;19.60;42.80;;;;;;5038789;28;20542;-69
2021/03/19 04:53:44;;;;;;;0.90;0.90;;;19.70;42.90;;;;;;5039956;28;20477;-70
2021/03/19 04:56:10;;;;;;;0.93;0.93;;;19.70;42.90;;;;;;5054092;28;20489;-70
2021/03/19 04:58:36;;;;;;;0.80;0.80;;;19.70;42.70;;;;;;5053722;28;20482;-71
2021/03/19 05:01:02;;;;;;;0.70;0.70;;;19.70;42.70;;;;;;5060176;28;20486;-70
2021/03/19 05:03:29;;;;;;;1.73;1.40;;;19.70;42.70;;;;;;5053079;28;20951;-70
2021/03/19 05:05:55;;;;;;;0.83;0.83;;;19.70;42.60;;;;;;5074008;28;20481;-70
2021/03/19 05:08:22;;;;;;;1.00;1.00;;;19.70;42.60;;;;;;5048831;28;20485;-70
2021/03/19 05:10:48;;;;;;;1.10;1.10;;;19.70;42.70;;;;;;5054518;28;21372;-70
2021/03/19 05:13:14;;;;;;;0.77;0.77;;;19.70;42.60;;;;;;5056299;28;20572;-71
2021/03/19 05:15:41;;;;;;;0.80;0.80;;;19.70;42.70;;;;;;5066720;28;21099;-70
2021/03/19 05:18:07;;;;;;;1.10;1.00;;;19.70;42.60;;;;;;5056924;28;21001;-70
2021/03/19 05:20:34;;;;;;;1.20;1.20;;;19.70;42.60;;;;;;5045395;28;20512;-70
2021/03/19 05:23:01;;;;;;;0.90;0.90;;;19.80;42.60;;;;;;5059261;28;20504;-70
2021/03/19 05:25:28;;;;;;;5.23;2.20;;;19.80;42.60;;;;;;5054909;28;20501;-70
2021/03/19 05:27:54;;;;;;;1.10;1.10;;;19.80;42.60;;;;;;5064353;28;20476;-70
2021/03/19 05:30:22;;;;;;;0.83;0.83;;;19.80;42.60;;;;;;5051594;28;20472;-70
2021/03/19 05:32:48;;;;;;;1.33;0.80;;;19.80;42.60;;;;;;5074042;27;20485;-70
2021/03/19 05:35:14;;;;;;;1.17;1.13;;;19.80;42.50;;;;;;5053489;28;20494;-70
2021/03/19 05:37:40;;;;;;;0.70;0.70;;;19.90;42.50;;;;;;5055406;28;20477;-70
2021/03/19 05:40:11;;;;;;;0.80;0.80;;;19.90;42.30;;;;;;5053444;28;20490;-69
2021/03/19 05:42:38;;;;;;;1.00;1.00;;;19.90;42.30;;;;;;5054523;28;20733;-71
2021/03/19 05:45:15;;;;;;;0.77;0.77;;;19.90;42.20;;;;;;5031393;28;20486;-70
2021/03/19 05:47:41;;;;;;;0.93;0.93;;;19.90;42.30;;;;;;5067101;28;20978;-70
2021/03/19 05:50:18;;;;;;;1.90;1.20;;;19.90;42.30;;;;;;5060323;28;20869;-70
2021/03/19 05:52:44;;;;;;;0.93;0.93;;;19.90;42.30;;;;;;5046916;28;20487;-71
2021/03/19 05:55:14;;;;;;;0.60;0.60;;;20.00;42.30;;;;;;5027768;28;21017;-70
2021/03/19 05:57:40;;;;;;;0.80;0.80;;;20.00;42.20;;;;;;5043495;28;20827;-70
2021/03/19 06:00:16;;;;;;;0.80;0.80;;;20.00;42.00;;;;;;5075741;28;20839;-70
2021/03/19 06:02:42;;;;;;;0.90;0.90;;;20.10;42.10;;;;;;5053430;28;20473;-71
2021/03/19 06:05:13;;;;;;;1.57;1.47;;;20.00;42.00;;;;;;5059028;28;20481;-71
2021/03/19 06:07:44;;;;;;;0.93;0.93;;;20.00;42.10;;;;;;5057409;28;20481;-70
2021/03/19 06:10:30;;;;;;;0.73;0.73;;;20.00;42.10;;;;;;5057097;28;20485;-70
2021/03/19 06:13:09;;;;;;;1.07;1.07;;;20.00;42.10;;;;;;5064080;28;20478;-70
2021/03/19 06:15:37;;;;;;;1.07;1.07;;;20.00;42.10;;;;;;5049462;28;20539;-70
2021/03/19 06:18:05;;;;;;;1.23;1.13;;;20.00;42.10;;;;;;5059574;28;20489;-69
2021/03/19 06:20:31;;;;;;;1.20;1.10;;;20.00;42.10;;;;;;5048790;28;20482;-70
2021/03/19 06:23:04;;;;;;;1.10;1.00;;;20.00;42.10;;;;;;5029549;28;20553;-70
2021/03/19 06:25:38;;;;;;;1.00;1.00;;;20.00;42.20;;;;;;5054395;28;20996;-69
2021/03/19 06:28:05;;;;;;;0.93;0.93;;;20.00;42.10;;;;;;5054689;28;20501;-70
2021/03/19 06:30:33;;;;;;;0.90;0.90;;;20.00;42.10;;;;;;5052694;28;20562;-70
2021/03/19 06:33:04;;;;;;;3.03;1.27;;;20.00;42.00;;;;;;5033089;28;21016;-70
2021/03/19 06:35:32;;;;;;;1.30;1.03;;;20.10;42.10;;;;;;5053832;28;20476;-70
2021/03/19 06:38:27;;;;;;;1.13;1.13;;;20.10;42.10;;;;;;5076406;27;20574;-70
2021/03/19 06:40:55;;;;;;;1.40;1.30;;;20.10;42.10;;;;;;5060991;28;20469;-71
2021/03/19 06:43:22;;;;;;;0.90;0.90;;;20.00;42.10;;;;;;5038764;28;20497;-71
2021/03/19 06:45:49;;;;;;;1.33;1.33;;;20.00;42.10;;;;;;5053593;28;20474;-70
2021/03/19 06:48:33;;;;;;;1.00;1.00;;;20.00;42.10;;;;;;5041376;28;20540;-70
2021/03/19 06:50:59;;;;;;;0.87;0.87;;;20.00;42.10;;;;;;5054957;28;22975;-71
2021/03/19 06:53:27;;;;;;;2.20;1.10;;;20.00;42.20;;;;;;5052369;28;20476;-71
2021/03/19 06:55:54;;;;;;;1.00;1.00;;;20.00;42.20;;;;;;5068284;28;20481;-70
2021/03/19 06:58:34;;;;;;;2.83;1.33;;;19.90;42.10;;;;;;5078917;28;20851;-71
2021/03/19 07:01:01;;;;;;;0.93;0.93;;;19.90;42.20;;;;;;5043944;28;20482;-70
2021/03/19 07:03:52;;;;;;;1.40;1.07;;;19.90;42.20;;;;;;5065539;28;20530;-70
2021/03/19 07:06:51;;;;;;;1.00;1.00;;;19.90;42.20;;;;;;5039424;28;20469;-70
2021/03/19 07:09:24;;;;;;;0.80;0.80;;;19.90;42.20;;;;;;5042934;28;20833;-70
2021/03/19 07:12:13;;;;;;;1.17;1.07;;;19.90;42.20;;;;;;5040160;28;21445;-70
2021/03/19 07:14:56;;;;;;;1.30;1.20;;;19.90;42.20;;;;;;5064454;28;20519;-70
2021/03/19 07:17:42;;;;;;;1.03;1.03;;;19.90;42.20;;;;;;5068722;28;20481;-70
2021/03/19 07:20:14;;;;;;;1.10;1.10;;;19.90;42.30;;;;;;5059039;28;20543;-70
2021/03/19 07:22:48;;;;;;;0.97;0.83;;;19.90;42.30;;;;;;5053057;28;20482;-70
2021/03/19 07:25:19;;;;;;;1.17;1.17;;;19.90;42.40;;;;;;5061444;28;21180;-69
2021/03/19 07:27:54;;;;;;;1.53;1.20;;;19.90;42.30;;;;;;5068981;28;20495;-69
2021/03/19 07:30:24;;;;;;;1.00;0.90;;;19.90;42.30;;;;;;5046955;28;20473;-70
2021/03/19 07:33:12;;;;;;;1.37;1.37;;;20.00;42.40;;;;;;5054217;28;20486;-70
2021/03/19 07:35:44;;;;;;;1.40;1.30;;;20.00;42.30;;;;;;5055474;28;20500;-70
2021/03/19 07:38:42;;;;;;;1.23;1.20;;;20.00;42.20;;;;;;5056704;28;20489;-70
2021/03/19 07:41:26;;;;;;;1.30;1.20;;;19.90;42.30;;;;;;5045243;28;20485;-71
2021/03/19 07:44:22;;;;;;;0.90;0.90;;;19.90;42.30;;;;;;5052098;28;20582;-70
2021/03/19 07:46:53;;;;;;;1.10;1.10;;;19.90;42.40;;;;;;5055640;28;20936;-70
2021/03/19 07:49:44;;;;;;;1.20;1.20;;;19.90;42.40;;;;;;5052315;28;20473;-70
2021/03/19 07:52:20;;;;;;;0.93;0.93;;;19.90;42.50;;;;;;5062037;28;20484;-70
2021/03/19 07:54:48;;;;;;;0.90;0.90;;;19.90;42.40;;;;;;5065014;28;21056;-70
2021/03/19 07:57:19;;;;;;;1.43;0.93;;;19.90;42.30;;;;;;5065622;28;20840;-70
2021/03/19 07:59:49;;;;;;;0.80;0.80;;;19.90;42.30;;;;;;5057171;28;20474;-69
2021/03/19 08:02:47;;;;;;;1.17;1.17;;;19.90;42.40;;;;;;5043831;28;20487;-70
2021/03/19 08:05:25;;;;;;;1.10;1.07;;;19.90;42.40;;;;;;5044508;28;20493;-70
2021/03/19 08:08:09;;;;;;;1.00;1.00;;;19.80;42.50;;;;;;5053715;28;20508;-70
2021/03/19 08:10:46;;;;;;;1.40;0.97;;;19.80;42.60;;;;;;5043552;28;20470;-70
2021/03/19 08:13:17;;;;;;;1.00;1.00;;;19.80;42.60;;;;;;5046159;28;21156;-71
2021/03/19 08:15:47;;;;;;;1.13;1.13;;;19.80;42.60;;;;;;5059923;28;20975;-70
2021/03/19 08:18:15;;;;;;;1.00;0.90;;;19.80;42.70;;;;;;5054567;28;21002;-70
2021/03/19 08:21:04;;;;;;;1.20;1.20;;;19.80;42.70;;;;;;5059588;28;20505;-70
2021/03/19 08:23:38;;;;;;;1.13;0.90;;;19.80;42.70;;;;;;5038686;28;21012;-71
2021/03/19 08:26:05;;;;;;;0.90;0.90;;;19.80;42.80;;;;;;5050395;28;20473;-69
2021/03/19 08:28:36;;;;;;;1.10;0.90;;;19.70;42.70;;;;;;5047335;28;20605;-70
2021/03/19 08:31:08;;;;;;;0.90;0.90;;;19.80;42.90;;;;;;5045617;28;20869;-71
2021/03/19 08:33:46;;;;;;;1.10;1.10;;;19.70;42.90;;;;;;5059034;28;20607;-71
2021/03/19 08:36:18;;;;;;;0.67;0.67;;;19.80;43.00;;;;;;5055843;28;20516;-70
2021/03/19 08:38:45;;;;;;;0.90;0.90;;;19.80;42.90;;;;;;5051274;28;20474;-69
2021/03/19 08:41:14;;;;;;;0.90;0.90;;;19.80;42.90;;;;;;5040793;28;21645;-70
2021/03/19 08:43:42;;;;;;;1.43;1.33;;;19.80;42.80;;;;;;5020392;28;21012;-69
2021/03/19 08:46:11;;;;;;;1.90;1.00;;;19.80;42.80;;;;;;5057057;28;20481;-70
2021/03/19 08:48:46;;;;;;;0.80;0.80;;;19.80;42.70;;;;;;5033841;28;20554;-70
2021/03/19 08:51:14;;;;;;;0.80;0.80;;;19.80;42.70;;;;;;5049384;28;20492;-70
2021/03/19 08:54:24;;;;;;;1.20;1.10;;;19.80;42.80;;;;;;5063362;28;20480;-70
2021/03/19 08:56:50;;;;;;;0.90;0.90;;;19.80;42.80;;;;;;5047822;28;20490;-70
2021/03/19 08:59:51;;;;;;;1.00;1.00;;;19.80;43.00;;;;;;5049151;28;20492;-70
2021/03/19 09:02:47;;;;;;;1.60;1.10;;;19.70;42.90;;;;;;5042883;28;20473;-69
2021/03/19 09:05:34;;;;;;;0.87;0.87;;;19.70;43.00;;;;;;5054223;28;20474;-70
2021/03/19 09:08:24;;;;;;;1.33;1.17;;;19.70;43.00;;;;;;5046242;28;20489;-70
2021/03/19 09:11:10;;;;;;;1.73;0.90;;;19.70;43.10;;;;;;5039047;28;20470;-68
2021/03/19 09:13:37;;;;;;;2.20;1.10;;;19.70;43.10;;;;;;5052018;28;20467;-69
2021/03/19 09:16:44;;;;;;;0.90;0.90;;;19.70;43.00;;;;;;5085009;27;21103;-70
2021/03/19 09:19:42;;;;;;;1.00;0.90;;;19.80;43.00;;;;;;5035077;28;21086;-71
2021/03/19 09:22:33;;;;;;;1.60;0.73;;;19.80;42.90;;;;;;5037550;28;20492;-70
2021/03/19 09:25:23;;;;;;;0.80;0.80;;;19.80;42.80;;;;;;5052041;28;20583;-70
2021/03/19 09:28:17;;;;;;;0.80;0.80;;;19.90;43.00;;;;;;5035166;28;21282;-70
2021/03/19 09:30:46;;;;;;;0.67;0.67;;;19.80;43.00;;;;;;5048726;28;20476;-70
2021/03/19 09:33:14;;;;;;;0.80;0.80;;;19.80;43.20;;;;;;5065817;28;20614;-70
2021/03/19 09:35:42;;;;;;;1.67;0.83;;;19.70;43.10;;;;;;5053613;28;20489;-70
2021/03/19 09:38:12;;;;;;;0.87;0.87;;;19.70;43.10;;;;;;5049715;28;20514;-70
2021/03/19 09:40:49;;;;;;;0.93;0.90;;;19.70;43.10;;;;;;5070237;28;20498;-70
2021/03/19 09:43:35;;;;;;;0.90;0.90;;;19.70;43.10;;;;;;5055887;28;20492;-70
2021/03/19 09:46:04;;;;;;;0.70;0.70;;;19.70;43.10;;;;;;5039320;28;20513;-70
2021/03/19 09:48:33;;;;;;;1.00;0.90;;;19.70;43.40;;;;;;5026671;28;21323;-70
2021/03/19 09:51:14;;;;;;;1.10;0.77;;;19.70;43.10;;;;;;5064808;28;20493;-70
2021/03/19 09:53:40;;;;;;;0.73;0.73;;;19.80;43.20;;;;;;5036655;28;20501;-70
2021/03/19 09:56:16;;;;;;;1.33;1.10;;;19.80;42.90;;;;;;5069611;28;20536;-70
2021/03/19 09:58:44;;;;;;;1.00;0.90;;;19.80;43.60;;;;;;5042763;28;20495;-69
2021/03/19 10:01:13;;;;;;;1.00;1.00;;;19.80;42.90;;;;;;5078772;28;20500;-70
2021/03/19 10:03:41;;;;;;;0.67;0.67;;;19.80;43.00;;;;;;5052406;28;20473;-70
2021/03/19 10:06:16;;;;;;;1.37;0.60;;;19.80;43.00;;;;;;5055148;28;20504;-70
2021/03/19 10:08:43;;;;;;;0.67;0.67;;;19.80;43.00;;;;;;5027229;28;20550;-70
2021/03/19 10:11:10;;;;;;;0.60;0.60;;;19.80;43.00;;;;;;5023893;28;20592;-70
2021/03/19 10:13:36;;;;;;;0.80;0.80;;;19.80;42.90;;;;;;5052695;28;20484;-70
2021/03/19 10:16:03;;;;;;;0.90;0.90;;;19.80;42.90;;;;;;5064436;28;21028;-70
2021/03/19 10:18:31;;;;;;;0.60;0.60;;;19.80;42.90;;;;;;5057954;28;21025;-70
2021/03/19 10:20:59;;;;;;;0.70;0.70;;;19.80;42.80;;;;;;5066075;28;20484;-71
2021/03/19 10:23:28;;;;;;;0.63;0.63;;;19.80;42.80;;;;;;5063221;28;20480;-70
2021/03/19 10:26:04;;;;;;;0.87;0.70;;;19.80;42.80;;;;;;5061619;28;20482;-70
2021/03/19 10:28:31;;;;;;;0.80;0.80;;;19.80;42.80;;;;;;5062430;28;20477;-70
2021/03/19 10:30:58;;;;;;;0.80;0.80;;;19.80;42.90;;;;;;5056622;28;20477;-71
2021/03/19 10:33:26;;;;;;;0.60;0.60;;;19.80;43.00;;;;;;5063643;28;20472;-70
2021/03/19 10:35:57;;;;;;;0.70;0.70;;;19.70;42.90;;;;;;5076258;28;20549;-70
2021/03/19 10:38:29;;;;;;;0.70;0.70;;;19.70;43.00;;;;;;5050167;28;20511;-70
2021/03/19 10:40:59;;;;;;;1.43;0.90;;;19.70;43.00;;;;;;5060205;28;20476;-71
2021/03/19 10:43:27;;;;;;;1.10;0.70;;;19.70;43.00;;;;;;5043636;28;20621;-71
2021/03/19 10:45:56;;;;;;;0.70;0.70;;;19.70;43.10;;;;;;5018847;28;21026;-71
2021/03/19 10:48:26;;;;;;;1.20;0.80;;;19.70;43.10;;;;;;5058050;28;20532;-71
2021/03/19 10:51:00;;;;;;;0.53;0.53;;;19.70;43.00;;;;;;5047427;28;21107;-71
2021/03/19 10:53:37;;;;;;;0.53;0.53;;;19.70;43.10;;;;;;5050840;28;20611;-70
2021/03/19 10:56:04;;;;;;;0.80;0.80;;;19.70;43.20;;;;;;5043040;28;20480;-71
2021/03/19 10:58:42;;;;;;;0.57;0.57;;;19.60;43.10;;;;;;5070608;28;20476;-71
2021/03/19 11:01:30;;;;;;;0.97;0.57;;;19.70;43.20;;;;;;5066789;28;20474;-70
2021/03/19 11:03:56;;;;;;;0.73;0.73;;;19.60;43.10;;;;;;5052094;28;21030;-70
2021/03/19 11:06:36;;;;;;;0.87;0.70;;;19.70;43.20;;;;;;5057680;28;20492;-70
2021/03/19 11:09:14;;;;;;;0.50;0.50;;;19.70;43.30;;;;;;5047036;28;20472;-70
2021/03/19 11:11:41;;;;;;;0.60;0.60;;;19.70;43.20;;;;;;5049927;28;20573;-71
2021/03/19 11:14:09;;;;;;;0.63;0.63;;;19.70;43.20;;;;;;5044551;28;20492;-70
2021/03/19 11:16:36;;;;;;;0.70;0.60;;;19.70;43.20;;;;;;5050317;28;20539;-71
2021/03/19 11:19:05;;;;;;;0.50;0.50;;;19.70;43.20;;;;;;5074079;28;20511;-71
2021/03/19 11:21:32;;;;;;;0.60;0.50;;;19.70;43.00;;;;;;5054960;28;20474;-70
2021/03/19 11:24:24;;;;;;;1.07;0.77;;;19.70;43.00;;;;;;5046720;28;20532;-70
2021/03/19 11:27:01;;;;;;;1.00;0.60;;;19.70;43.10;;;;;;4990949;28;20532;-71
2021/03/19 11:29:31;;;;;;;0.63;0.50;;;19.70;43.20;;;;;;5026398;28;20477;-71
2021/03/19 11:32:25;;;;;;;0.50;0.50;;;19.60;43.20;;;;;;5073006;28;20485;-70
2021/03/19 11:34:52;;;;;;;1.13;0.50;;;19.60;43.30;;;;;;5056343;28;20469;-70
2021/03/19 11:37:32;;;;;;;0.70;0.70;;;19.60;43.30;;;;;;5055241;28;20519;-70
2021/03/19 11:40:00;;;;;;;0.50;0.50;;;19.60;43.30;;;;;;5042775;28;20470;-71
2021/03/19 11:42:27;;;;;;;0.43;0.43;;;19.60;43.30;;;;;;5044880;28;21092;-70
2021/03/19 11:44:55;;;;;;;0.50;0.50;;;19.60;43.40;;;;;;5069971;28;21669;-69
2021/03/19 11:47:22;;;;;;;0.70;0.70;;;19.60;43.20;;;;;;5052941;28;20491;-71
2021/03/19 11:49:49;;;;;;;0.63;0.63;;;19.60;43.20;;;;;;5065100;28;20531;-70
2021/03/19 11:52:17;;;;;;;0.60;0.60;;;19.60;43.20;;;;;;5053675;28;20490;-70
2021/03/19 11:54:43;;;;;;;0.50;0.50;;;19.60;43.30;;;;;;5054233;28;21005;-70
2021/03/19 11:57:10;;;;;;;0.57;0.57;;;19.70;43.30;;;;;;5055019;28;20572;-70
2021/03/19 11:59:37;;;;;;;0.70;0.60;;;19.70;43.20;;;;;;5055206;28;20854;-71
2021/03/19 12:02:05;;;;;;;0.70;0.70;;;19.70;43.10;;;;;;5056951;28;20485;-70
2021/03/19 12:04:32;;;;;;;0.60;0.60;;;19.70;43.00;;;;;;5053186;28;20484;-70
2021/03/19 12:06:58;;;;;;;0.93;0.60;;;19.80;43.00;;;;;;5056655;28;20492;-71
2021/03/19 12:09:24;;;;;;;0.50;0.50;;;19.80;43.00;;;;;;5075473;28;20472;-71
2021/03/19 12:11:50;;;;;;;1.27;0.50;;;19.70;43.00;;;;;;5052442;28;21066;-71
2021/03/19 12:14:20;;;;;;;0.90;0.90;;;19.80;43.20;;;;;;5074064;28;20863;-71
2021/03/19 12:16:47;;;;;;;0.80;0.60;;;19.70;43.00;;;;;;5052545;28;20501;-70
2021/03/19 12:19:15;;;;;;;0.77;0.77;;;19.80;43.20;;;;;;5042287;28;20925;-70
2021/03/19 12:21:41;;;;;;;0.70;0.70;;;19.80;42.90;;;;;;5013632;28;20489;-70
2021/03/19 12:24:07;;;;;;;1.43;0.50;;;19.80;42.90;;;;;;5043780;28;20490;-71
2021/03/19 12:26:33;;;;;;;0.60;0.60;;;19.90;43.00;;;;;;5052235;28;20469;-70
2021/03/19 12:28:59;;;;;;;1.10;0.53;;;19.80;42.80;;;;;;5032024;28;20851;-70
2021/03/19 12:31:26;;;;;;;0.67;0.67;;;19.90;43.00;;;;;;5050669;28;20925;-70
2021/03/19 12:33:53;;;;;;;0.50;0.50;;;19.80;42.80;;;;;;5056946;28;20638;-70
2021/03/19 12:36:19;;;;;;;0.50;0.50;;;19.90;42.90;;;;;;5050804;28;21083;-70
2021/03/19 12:38:45;;;;;;;0.73;0.50;;;19.80;42.80;;;;;;5040179;28;20496;-70
2021/03/19 12:41:11;;;;;;;0.60;0.60;;;19.80;42.90;;;;;;5056761;28;20476;-71
2021/03/19 12:43:39;;;;;;;0.50;0.50;;;19.80;43.00;;;;;;5049405;28;20924;-71
2021/03/19 12:46:06;;;;;;;0.60;0.60;;;19.70;43.00;;;;;;5045884;28;20532;-70
2021/03/19 12:48:33;;;;;;;0.60;0.60;;;19.70;43.10;;;;;;5053917;28;20489;-69
2021/03/19 12:50:59;;;;;;;0.50;0.50;;;19.70;43.10;;;;;;5069478;28;20508;-70
2021/03/19 12:53:25;;;;;;;0.70;0.70;;;19.60;43.10;;;;;;5059631;28;20474;-69
2021/03/19 12:55:52;;;;;;;0.67;0.67;;;19.70;43.20;;;;;;5042242;28;20481;-71
2021/03/19 12:58:20;;;;;;;0.50;0.50;;;19.70;43.10;;;;;;5079313;28;20477;-70
2021/03/19 13:00:46;;;;;;;0.50;0.50;;;19.70;43.10;;;;;;5054190;28;20474;-70
2021/03/19 13:03:12;;;;;;;0.50;0.50;;;19.70;43.00;;;;;;5056247;28;20482;-70
2021/03/19 13:05:41;;;;;;;0.40;0.40;;;19.80;43.10;;;;;;5055331;28;20489;-70
2021/03/19 13:08:07;;;;;;;0.50;0.50;;;19.80;43.10;;;;;;5057775;28;20551;-70
2021/03/19 13:10:34;;;;;;;0.50;0.50;;;19.80;43.00;;;;;;5053908;28;20523;-70
2021/03/19 13:13:00;;;;;;;0.50;0.50;;;19.80;42.90;;;;;;5029360;28;20513;-70